Flinterborg — PHPH — position and weather

sailwx.info

Track history (hours):
 
Tides and Currents Weather Stations Pressure Air Temp Water Temp Dewpoint Dewpoint Depression Visibility Wind Speed Wind Dir Waves Ship Positions

Flinterborg

Last reported at 2015-Jul-31 20:33 UTC. Time now 2015-Jul-31 21:27 UTC.
Position N 54°22' E 010°08'.

Length 111 m; draft 6.1 m.

Type: Ship. MMSI: 245433000.

Date/timePositionNaut miles runAvg speedWind from/ knotsBaromVisibWave heightAir tempDewpointWater temp
2015-Jul-31 20:33N 54°22' E 010°08'0 0.0
2015-Jul-31 19:29N 54°22' E 010°08'0 0.0
2015-Jul-31 18:31N 54°22' E 010°08'0 0.5
2015-Jul-31 17:33N 54°22' E 010°08'1 1.2
2015-Jul-31 16:33N 54°22' E 010°11'5 5.1
2015-Jul-31 15:33N 54°27' E 010°14'1111.0
2015-Jul-31 14:34N 54°33' E 010°30'1211.4
2015-Jul-31 13:32N 54°35' E 010°50'1110.7
2015-Jul-31 12:33N 54°36' E 011°08'1110.8
2015-Jul-31 11:33N 54°32' E 011°25'1110.8
2015-Jul-31 10:33N 54°29' E 011°43'1111.1
2015-Jul-31 09:33N 54°27' E 012°01'6410.7
2015-Jul-31 03:33N 54°59' E 013°38'1110.7
2015-Jul-31 02:33N 55°02' E 013°56'1110.7
2015-Jul-31 01:33N 55°09' E 014°11'1211.6
2015-Jul-31 00:33N 55°17' E 014°24'1211.8
2015-Jul-30 23:33N 55°26' E 014°38'1211.7
2015-Jul-30 22:33N 55°32' E 014°56'1211.7
2015-Jul-30 21:33N 55°38' E 015°13'1211.8
2015-Jul-30 20:33N 55°45' E 015°31'1211.7
2015-Jul-30 19:33N 55°51' E 015°49'  
2015-Jul-23 22:33N 59°37' E 021°02'1111.4
2015-Jul-23 21:33N 59°35' E 021°24'1111.6
2015-Jul-23 20:33N 59°36' E 021°46'1211.6
2015-Jul-23 19:33N 59°37' E 022°09'3611.9
2015-Jul-23 16:30N 59°42' E 023°20'1212.0
2015-Jul-23 15:33N 59°45' E 023°42'  
Track history (hours):
 
Tides and Currents Weather Stations Pressure Air Temp Water Temp Dewpoint Dewpoint Depression Visibility Wind Speed Wind Dir Waves Ship Positions

Flinterborg

Last reported at 2015-Jul-31 20:33 UTC. Time now 2015-Jul-31 21:27 UTC.
Position N 54°22' E 010°08'.

Length 111 m; draft 6.1 m.

Type: Ship. MMSI: 245433000.

Date/timePositionNaut miles runAvg speedWind from/ knotsBaromVisibWave heightAir tempDewpointWater temp
2015-Jul-31 20:33N 54°22' E 010°08'0 0.0
2015-Jul-31 19:29N 54°22' E 010°08'0 0.0
2015-Jul-31 18:31N 54°22' E 010°08'0 0.5
2015-Jul-31 17:33N 54°22' E 010°08'1 1.2
2015-Jul-31 16:33N 54°22' E 010°11'5 5.1
2015-Jul-31 15:33N 54°27' E 010°14'1111.0
2015-Jul-31 14:34N 54°33' E 010°30'1211.4
2015-Jul-31 13:32N 54°35' E 010°50'1110.7
2015-Jul-31 12:33N 54°36' E 011°08'1110.8
2015-Jul-31 11:33N 54°32' E 011°25'1110.8
2015-Jul-31 10:33N 54°29' E 011°43'1111.1
2015-Jul-31 09:33N 54°27' E 012°01'6410.7
2015-Jul-31 03:33N 54°59' E 013°38'1110.7
2015-Jul-31 02:33N 55°02' E 013°56'1110.7
2015-Jul-31 01:33N 55°09' E 014°11'1211.6
2015-Jul-31 00:33N 55°17' E 014°24'1211.8
2015-Jul-30 23:33N 55°26' E 014°38'1211.7
2015-Jul-30 22:33N 55°32' E 014°56'1211.7
2015-Jul-30 21:33N 55°38' E 015°13'1211.8
2015-Jul-30 20:33N 55°45' E 015°31'1211.7
2015-Jul-30 19:33N 55°51' E 015°49'  
2015-Jul-23 22:33N 59°37' E 021°02'1111.4
2015-Jul-23 21:33N 59°35' E 021°24'1111.6
2015-Jul-23 20:33N 59°36' E 021°46'1211.6
2015-Jul-23 19:33N 59°37' E 022°09'3611.9
2015-Jul-23 16:30N 59°42' E 023°20'1212.0
2015-Jul-23 15:33N 59°45' E 023°42'  

Dump ship's entire track history